createdAt,value
2022-08-11T00:01:36.710Z,2.15
2022-08-11T00:04:39.874Z,1.60
2022-08-11T00:07:56.222Z,1.92
2022-08-11T00:11:02.557Z,1.98
2022-08-11T00:14:12.948Z,2.10
2022-08-11T00:17:17.131Z,2.28
2022-08-11T00:20:20.076Z,1.85
2022-08-11T00:23:22.188Z,2.20
2022-08-11T00:26:26.896Z,1.95
2022-08-11T00:29:29.329Z,1.63
2022-08-11T00:32:31.772Z,1.83
2022-08-11T00:35:51.815Z,1.95
2022-08-11T00:39:04.487Z,1.95
2022-08-11T00:42:26.472Z,1.75
2022-08-11T00:46:05.478Z,2.28
2022-08-11T00:49:07.137Z,2.10
2022-08-11T00:52:33.790Z,1.77
2022-08-11T00:56:09.638Z,2.10
2022-08-11T00:59:35.012Z,1.90
2022-08-11T01:03:14.473Z,1.95
2022-08-11T01:06:38.446Z,1.63
2022-08-11T01:09:53.625Z,2.30
2022-08-11T01:13:17.081Z,1.90
2022-08-11T01:16:43.243Z,1.77
2022-08-11T01:20:45.325Z,2.17
2022-08-11T01:23:24.878Z,2.17
2022-08-11T01:27:19.151Z,2.47
2022-08-11T01:30:56.611Z,2.20
2022-08-11T01:34:23.044Z,2.00
2022-08-11T01:37:52.967Z,1.90
2022-08-11T01:41:52.147Z,2.13
2022-08-11T01:45:03.498Z,1.77
2022-08-11T01:48:15.808Z,2.20
2022-08-11T01:51:43.245Z,2.50
2022-08-11T01:55:02.023Z,2.17
2022-08-11T01:58:44.182Z,2.20
2022-08-11T02:02:04.158Z,2.42
2022-08-11T02:05:41.287Z,1.80
2022-08-11T02:08:51.389Z,2.28
2022-08-11T02:11:59.811Z,2.72
2022-08-11T02:15:10.090Z,2.10
2022-08-11T02:18:52.903Z,1.98
2022-08-11T02:22:20.500Z,2.33
2022-08-11T02:25:31.291Z,2.50
2022-08-11T02:28:57.463Z,2.13
2022-08-11T02:32:36.299Z,2.50
2022-08-11T02:35:51.649Z,2.38
2022-08-11T02:39:09.750Z,2.30
2022-08-11T02:42:35.486Z,2.30
2022-08-11T02:45:46.301Z,2.15
2022-08-11T02:49:17.951Z,2.15
2022-08-11T02:52:45.463Z,2.50
2022-08-11T02:56:03.335Z,2.08
2022-08-11T02:59:43.788Z,2.40
2022-08-11T03:02:51.693Z,2.50
2022-08-11T03:06:00.290Z,2.20
2022-08-11T03:09:17.867Z,2.45
2022-08-11T03:12:53.447Z,2.22
2022-08-11T03:16:42.928Z,2.03
2022-08-11T03:20:00.209Z,2.15
2022-08-11T03:23:30.052Z,2.50
2022-08-11T03:26:47.415Z,2.42
2022-08-11T03:30:04.786Z,2.80
2022-08-11T03:33:41.666Z,2.22
2022-08-11T03:37:34.370Z,2.30
2022-08-11T03:42:01.855Z,2.00
2022-08-11T03:45:41.643Z,2.35
2022-08-11T03:49:11.927Z,2.45
2022-08-11T03:52:23.394Z,3.05
2022-08-11T03:55:34.731Z,2.38
2022-08-11T03:58:57.744Z,2.38
2022-08-11T04:02:18.407Z,2.67
2022-08-11T04:05:58.808Z,2.70
2022-08-11T04:09:13.276Z,2.47
2022-08-11T04:12:35.892Z,2.30
2022-08-11T04:16:12.887Z,2.20
2022-08-11T04:19:42.614Z,2.22
2022-08-11T04:23:03.418Z,2.53
2022-08-11T04:26:20.254Z,2.60
2022-08-11T04:30:03.961Z,2.40
2022-08-11T04:33:38.247Z,2.55
2022-08-11T04:37:25.803Z,2.83
2022-08-11T04:40:30.254Z,2.50
2022-08-11T04:44:04.587Z,2.42
2022-08-11T04:48:12.451Z,2.63
2022-08-11T04:51:58.361Z,2.47
2022-08-11T04:55:21.762Z,2.67
2022-08-11T04:58:54.595Z,2.20
2022-08-11T05:02:35.588Z,2.35
2022-08-11T05:06:14.732Z,2.58
2022-08-11T05:09:25.311Z,2.40
2022-08-11T05:12:36.435Z,2.58
2022-08-11T05:16:08.158Z,2.17
2022-08-11T05:19:35.434Z,3.00
2022-08-11T05:23:02.277Z,2.88
2022-08-11T05:26:46.974Z,2.22
2022-08-11T05:30:16.429Z,3.10
2022-08-11T05:33:44.157Z,2.83
2022-08-11T05:36:50.848Z,2.47
2022-08-11T05:40:18.618Z,2.75
2022-08-11T05:44:20.329Z,2.75
2022-08-11T05:47:23.367Z,2.88
2022-08-11T05:50:44.629Z,2.67
2022-08-11T05:54:28.962Z,2.83
2022-08-11T05:57:49.927Z,2.65
2022-08-11T06:00:54.104Z,3.28
2022-08-11T06:04:17.259Z,3.38
2022-08-11T06:07:27.082Z,3.38
2022-08-11T06:10:47.796Z,3.38
2022-08-11T06:13:50.447Z,3.50
2022-08-11T06:16:56.558Z,3.28
2022-08-11T06:20:09.677Z,2.97
2022-08-11T06:23:11.943Z,3.00
2022-08-11T06:26:15.618Z,2.60
2022-08-11T06:29:18.842Z,3.35
2022-08-11T06:32:25.390Z,3.40
2022-08-11T06:35:48.314Z,3.80
2022-08-11T06:39:10.102Z,3.70
2022-08-11T06:42:24.955Z,3.17
2022-08-11T06:48:33.088Z,2.10
2022-08-11T06:51:38.465Z,2.03
2022-08-11T06:55:04.274Z,2.33
2022-08-11T06:58:25.546Z,2.40
2022-08-11T07:01:46.352Z,1.90
2022-08-11T07:05:11.636Z,2.22
2022-08-11T07:08:56.697Z,1.92
2022-08-11T07:12:36.180Z,2.00
2022-08-11T07:16:10.819Z,2.17
2022-08-11T07:19:27.257Z,1.90
2022-08-11T07:23:07.748Z,2.03
2022-08-11T07:26:30.829Z,1.95
2022-08-11T07:29:33.038Z,2.00
2022-08-11T07:32:53.714Z,1.88
2022-08-11T07:36:00.138Z,2.00
2022-08-11T07:39:03.163Z,2.00
2022-08-11T07:42:10.648Z,2.00
2022-08-11T07:45:32.035Z,2.40
2022-08-11T07:48:53.114Z,1.80
2022-08-11T07:52:14.678Z,1.85
2022-08-11T07:55:18.194Z,1.70
2022-08-11T07:58:45.374Z,1.85
2022-08-11T08:02:13.411Z,1.70
2022-08-11T08:05:36.714Z,1.90
2022-08-11T08:08:59.839Z,2.10
2022-08-11T08:12:23.912Z,2.03
2022-08-11T08:15:44.428Z,1.90
2022-08-11T08:18:46.702Z,2.05
2022-08-11T08:21:49.280Z,1.83
2022-08-11T08:24:52.341Z,1.52
2022-08-11T08:27:56.477Z,2.10
2022-08-11T08:30:58.581Z,1.80
2022-08-11T08:34:01.311Z,1.85
2022-08-11T08:37:16.199Z,1.52
2022-08-11T08:40:27.878Z,1.65
2022-08-11T08:43:32.592Z,1.73
2022-08-11T08:46:59.140Z,1.65
2022-08-11T08:50:05.630Z,1.65
2022-08-11T08:53:09.082Z,1.40
2022-08-11T08:56:11.710Z,1.35
2022-08-11T08:59:15.866Z,1.38
2022-08-11T09:02:33.979Z,1.50
2022-08-11T09:05:37.646Z,1.95
2022-08-11T09:08:40.908Z,1.80
2022-08-11T09:11:51.222Z,1.85
2022-08-11T09:15:03.629Z,2.20
2022-08-11T09:18:09.790Z,1.10
2022-08-11T09:21:39.229Z,1.50
2022-08-11T09:27:59.941Z,1.45
2022-08-11T09:31:02.549Z,1.10
2022-08-11T09:34:04.378Z,0.95
2022-08-11T09:37:28.642Z,1.20
2022-08-11T09:40:52.702Z,1.10
2022-08-11T09:44:19.333Z,1.20
2022-08-11T09:47:24.468Z,1.20
2022-08-11T09:50:26.787Z,1.20
2022-08-11T09:53:38.158Z,1.75
2022-08-11T09:57:05.291Z,1.50
2022-08-11T10:00:13.149Z,1.38
2022-08-11T10:03:22.200Z,1.30
2022-08-11T10:06:44.404Z,1.17
2022-08-11T10:09:58.982Z,1.20
2022-08-11T10:13:05.510Z,1.30
2022-08-11T10:16:30.071Z,1.10
2022-08-11T10:19:33.836Z,1.67
2022-08-11T10:22:54.805Z,1.40
2022-08-11T10:26:16.101Z,1.10
2022-08-11T10:29:37.684Z,1.20
2022-08-11T10:33:09.701Z,1.35
2022-08-11T10:36:16.869Z,1.25
2022-08-11T10:39:21.497Z,1.67
2022-08-11T10:42:57.427Z,1.23
2022-08-11T10:49:37.623Z,1.30
2022-08-11T10:52:59.873Z,1.20
2022-08-11T10:56:22.241Z,1.20
2022-08-11T10:59:28.149Z,1.50
2022-08-11T11:02:30.167Z,1.20
2022-08-11T11:05:32.866Z,1.10
2022-08-11T11:08:57.702Z,1.10
2022-08-11T11:12:42.520Z,1.20
2022-08-11T11:16:05.267Z,1.10
2022-08-11T11:19:08.909Z,1.10
2022-08-11T11:22:33.894Z,1.20
2022-08-11T11:26:06.456Z,1.35
2022-08-11T11:29:37.847Z,1.20
2022-08-11T11:34:06.499Z,1.55
2022-08-11T11:37:12.386Z,1.23
2022-08-11T11:40:17.514Z,1.08
2022-08-11T11:43:19.508Z,1.00
2022-08-11T11:46:21.865Z,1.20
2022-08-11T11:49:27.259Z,1.15
2022-08-11T11:52:29.806Z,1.20
2022-08-11T11:55:32.099Z,1.27
2022-08-11T11:58:52.995Z,1.20
2022-08-11T12:01:56.261Z,1.10
2022-08-11T12:04:58.421Z,1.10
2022-08-11T12:08:18.122Z,1.10
2022-08-11T12:11:40.566Z,0.98
2022-08-11T12:14:45.328Z,1.13
2022-08-11T12:17:52.423Z,1.10
2022-08-11T12:20:54.661Z,1.02
2022-08-11T12:24:16.512Z,1.10
2022-08-11T12:27:25.045Z,0.80
2022-08-11T12:30:28.235Z,1.13
2022-08-11T12:33:30.104Z,1.10
2022-08-11T12:36:43.471Z,1.20
2022-08-11T12:40:16.400Z,1.20
2022-08-11T12:43:56.885Z,1.10
2022-08-11T12:47:01.969Z,1.00
2022-08-11T12:50:23.659Z,1.10
2022-08-11T12:53:29.942Z,1.00
2022-08-11T12:57:06.405Z,1.08
2022-08-11T13:00:28.478Z,1.23
2022-08-11T13:03:56.675Z,1.20
2022-08-11T13:06:59.215Z,1.10
2022-08-11T13:10:05.551Z,1.30
2022-08-11T13:13:54.418Z,1.15
2022-08-11T13:16:55.931Z,1.08
2022-08-11T13:19:59.447Z,1.10
2022-08-11T13:23:01.975Z,1.27
2022-08-11T13:26:06.551Z,0.93
2022-08-11T13:29:09.568Z,1.10
2022-08-11T13:32:13.653Z,1.10
2022-08-11T13:35:18.966Z,1.20
2022-08-11T13:41:39.454Z,1.10
2022-08-11T13:44:42.568Z,1.10
2022-08-11T13:47:45.611Z,1.00
2022-08-11T13:51:06.707Z,1.00
2022-08-11T13:54:20.234Z,0.73
2022-08-11T13:58:18.289Z,1.20
2022-08-11T14:00:52.746Z,0.90
2022-08-11T14:04:29.760Z,1.00
2022-08-11T14:07:24.430Z,1.17
2022-08-11T14:10:29.562Z,1.00
2022-08-11T14:13:41.220Z,0.77
2022-08-11T14:16:45.483Z,0.90
2022-08-11T14:19:52.255Z,0.85
2022-08-11T14:22:54.216Z,0.90
2022-08-11T14:26:15.653Z,1.00
2022-08-11T14:32:27.702Z,0.90
2022-08-11T14:35:29.578Z,0.90
2022-08-11T14:38:35.563Z,0.93
2022-08-11T14:42:10.220Z,0.98
2022-08-11T14:45:57.938Z,0.90
2022-08-11T14:48:58.027Z,0.90
2022-08-11T14:52:00.167Z,0.90
2022-08-11T14:55:21.024Z,1.25
2022-08-11T14:58:25.651Z,0.70
2022-08-11T15:01:46.351Z,0.95
2022-08-11T15:04:48.469Z,0.80
2022-08-11T15:07:51.576Z,0.90
2022-08-11T15:10:53.418Z,0.80
2022-08-11T15:13:56.698Z,0.80
2022-08-11T15:17:11.696Z,0.90
2022-08-11T15:20:35.692Z,1.05
2022-08-11T15:23:58.280Z,0.88
2022-08-11T15:27:20.147Z,0.65
2022-08-11T15:30:42.767Z,0.50
2022-08-11T15:34:04.564Z,0.98
2022-08-11T15:37:26.800Z,1.10
2022-08-11T15:40:52.401Z,0.85
2022-08-11T15:44:15.245Z,0.93
2022-08-11T15:47:19.834Z,1.10
2022-08-11T15:50:21.908Z,1.27
2022-08-11T15:53:34.771Z,1.08
2022-08-11T15:56:41.207Z,1.45
2022-08-11T16:00:01.599Z,0.98
2022-08-11T16:04:05.698Z,1.13
2022-08-11T16:07:06.030Z,1.30
2022-08-11T16:10:14.018Z,1.10
2022-08-11T16:13:22.532Z,1.40
2022-08-11T16:16:24.899Z,1.40
2022-08-11T16:19:35.123Z,1.50
2022-08-11T16:22:57.218Z,1.10
2022-08-11T16:27:08.361Z,1.40
2022-08-11T16:29:31.389Z,1.20
2022-08-11T16:32:36.453Z,0.98
2022-08-11T16:35:59.048Z,1.20
2022-08-11T16:39:03.318Z,1.10
2022-08-11T16:43:09.848Z,1.05
2022-08-11T16:46:04.805Z,1.50
2022-08-11T16:49:12.251Z,1.40
2022-08-11T16:52:14.880Z,1.10
2022-08-11T16:55:51.685Z,1.10
2022-08-11T16:58:58.175Z,1.42
2022-08-11T17:02:08.987Z,0.88
2022-08-11T17:05:38.147Z,1.33
2022-08-11T17:09:07.633Z,1.40
2022-08-11T17:12:29.818Z,1.40
2022-08-11T17:16:01.293Z,1.10
2022-08-11T17:19:08.920Z,1.10
2022-08-11T17:22:29.037Z,1.20
2022-08-11T17:25:59.349Z,1.10
2022-08-11T17:29:01.103Z,1.05
2022-08-11T17:32:24.776Z,0.80
2022-08-11T17:35:32.902Z,1.10
2022-08-11T17:38:36.638Z,1.38
2022-08-11T17:41:58.391Z,1.30
2022-08-11T17:45:21.538Z,1.20
2022-08-11T17:48:27.963Z,1.10
2022-08-11T17:51:49.950Z,1.17
2022-08-11T17:55:13.368Z,1.13
2022-08-11T17:58:34.789Z,1.00
2022-08-11T18:01:39.852Z,1.15
2022-08-11T18:04:44.736Z,1.10
2022-08-11T18:08:07.177Z,1.10
2022-08-11T18:12:10.818Z,1.20
2022-08-11T18:15:12.030Z,1.20
2022-08-11T18:18:32.308Z,1.10
2022-08-11T18:22:08.291Z,0.77
2022-08-11T18:25:45.249Z,1.20
2022-08-11T18:29:10.208Z,1.02
2022-08-11T18:32:49.029Z,1.00
2022-08-11T18:36:17.671Z,0.95
2022-08-11T18:39:40.732Z,1.20
2022-08-11T18:43:04.140Z,1.20
2022-08-11T18:46:27.283Z,1.30
2022-08-11T18:50:02.387Z,1.30
2022-08-11T18:53:26.015Z,1.20
2022-08-11T18:56:48.407Z,1.10
2022-08-11T19:00:11.770Z,0.80
2022-08-11T19:03:43.394Z,1.60
2022-08-11T19:07:17.397Z,1.20
2022-08-11T19:10:41.955Z,1.60
2022-08-11T19:14:04.096Z,1.20
2022-08-11T19:17:44.746Z,1.20
2022-08-11T19:21:09.106Z,1.20
2022-08-11T19:24:32.630Z,1.13
2022-08-11T19:27:53.515Z,1.33
2022-08-11T19:31:15.530Z,1.55
2022-08-11T19:34:39.285Z,2.55
2022-08-11T19:38:01.765Z,3.13
2022-08-11T19:41:56.171Z,3.28
2022-08-11T19:45:04.427Z,2.83
2022-08-11T19:48:32.771Z,2.50
2022-08-11T19:51:55.582Z,2.53
2022-08-11T19:55:16.679Z,2.67
2022-08-11T19:58:37.282Z,2.50
2022-08-11T20:02:12.870Z,2.00
2022-08-11T20:05:34.735Z,2.10
2022-08-11T20:09:00.254Z,2.40
2022-08-11T20:12:24.221Z,1.92
2022-08-11T20:15:46.592Z,2.22
2022-08-11T20:19:10.040Z,2.80
2022-08-11T20:22:33.034Z,2.30
2022-08-11T20:25:59.156Z,2.80
2022-08-11T20:29:26.083Z,2.92
2022-08-11T20:32:47.038Z,2.63
2022-08-11T20:36:08.680Z,3.03
2022-08-11T20:39:30.023Z,2.65
2022-08-11T20:42:53.931Z,2.58
2022-08-11T20:46:14.588Z,2.53
2022-08-11T20:49:45.301Z,2.38
2022-08-11T20:53:14.206Z,2.75
2022-08-11T20:56:38.330Z,2.28
2022-08-11T21:00:02.628Z,2.50
2022-08-11T21:03:35.915Z,2.53
2022-08-11T21:06:58.096Z,2.00
2022-08-11T21:10:20.062Z,1.77
2022-08-11T21:13:51.414Z,1.63
2022-08-11T21:17:27.699Z,1.73
2022-08-11T21:20:50.679Z,1.80
2022-08-11T21:24:13.460Z,1.60
2022-08-11T21:27:38.455Z,1.52
2022-08-11T21:30:58.717Z,1.50
2022-08-11T21:34:19.827Z,1.48
2022-08-11T21:37:41.566Z,1.30
2022-08-11T21:41:03.809Z,1.40
2022-08-11T21:44:25.491Z,1.70
2022-08-11T21:47:47.342Z,1.40
2022-08-11T21:51:07.855Z,1.75
2022-08-11T21:54:29.635Z,1.88
2022-08-11T21:57:50.675Z,1.80
2022-08-11T22:01:11.980Z,1.70
2022-08-11T22:04:33.003Z,1.85
2022-08-11T22:07:53.289Z,1.45
2022-08-11T22:11:14.291Z,1.77
2022-08-11T22:14:34.783Z,1.60
2022-08-11T22:17:58.049Z,1.42
2022-08-11T22:22:02.524Z,1.27
2022-08-11T22:25:00.400Z,1.20
2022-08-11T22:28:20.840Z,1.60
2022-08-11T22:31:41.651Z,1.30
2022-08-11T22:35:02.799Z,1.40
2022-08-11T22:38:23.666Z,1.30
2022-08-11T22:41:44.364Z,1.40
2022-08-11T22:45:04.598Z,1.35
2022-08-11T22:48:27.642Z,1.70
2022-08-11T22:51:48.362Z,2.03
2022-08-11T22:55:09.960Z,1.20
2022-08-11T22:58:32.497Z,1.38
2022-08-11T23:01:55.461Z,1.23
2022-08-11T23:05:17.999Z,1.40
2022-08-11T23:08:39.560Z,1.42
2022-08-11T23:12:06.730Z,1.40
2022-08-11T23:15:29.163Z,1.33
2022-08-11T23:18:49.762Z,1.42
2022-08-11T23:22:10.315Z,1.35
2022-08-11T23:25:30.769Z,1.60
2022-08-11T23:28:52.041Z,1.27
2022-08-11T23:32:12.955Z,1.27
2022-08-11T23:35:39.211Z,1.25
2022-08-11T23:39:12.167Z,1.10
2022-08-11T23:42:32.280Z,1.05
2022-08-11T23:45:56.787Z,1.35
2022-08-11T23:49:22.381Z,1.10
2022-08-11T23:52:45.379Z,1.40
2022-08-11T23:56:05.635Z,1.50
2022-08-11T23:59:26.735Z,1.20
